ΕΜΥ, Εθνική Μετεωρολογική Υπηρεσία - Δελτία Καιρού, Προγνώσεις

ΑΕΡΟΝΑΥΤΙΛΙΑ

GREEK AIRPORTS CODES

LGPA 161750Z 01011KT 9999 BKN035 25/18 Q1004 RMK SCT080 FEW190=

EUROPEAN AIRPORTS CODES

LFPO 161900Z 32004KT 280V360 CAVOK 25/09 Q1016 NOSIG=